Time;durP1;ratioP1;P1;durP2;ratioP2;P2;SDS_P1;SDS_P2;PMS_P1;PMS_P2;Temp;Humidity;BMP_temperature;BMP_pressure;BME280_temperature;BME280_humidity;BME280_pressure;Samples;Min_cycle;Max_cycle;Signal;HPM_P1;HPM_P2
2022/06/10 04:04:47;;;;;;;2.65;2.45;;;11.30;99.90;;;;;;5956299;23;20243;-63
2022/06/10 04:07:17;;;;;;;2.20;2.00;;;11.40;99.90;;;;;;4974527;28;20178;-62
2022/06/10 04:09:43;;;;;;;3.83;2.28;;;11.40;99.90;;;;;;5006619;28;20199;-63
2022/06/10 04:12:09;;;;;;;2.88;2.67;;;11.50;99.90;;;;;;4975076;28;20177;-64
2022/06/10 04:14:35;;;;;;;2.63;2.43;;;11.70;99.90;;;;;;4975234;28;20613;-63
2022/06/10 04:17:01;;;;;;;4.03;2.97;;;12.10;99.90;;;;;;4974861;28;20414;-63
2022/06/10 04:19:27;;;;;;;2.20;2.10;;;12.40;99.90;;;;;;4975666;28;20464;-62
2022/06/10 04:21:53;;;;;;;2.17;2.00;;;12.60;99.90;;;;;;4975164;28;20169;-63
2022/06/10 04:24:18;;;;;;;6.67;2.17;;;12.70;99.90;;;;;;4974761;28;20193;-62
2022/06/10 04:26:44;;;;;;;2.60;1.87;;;12.70;99.90;;;;;;4975086;28;20170;-63
2022/06/10 04:29:13;;;;;;;2.00;1.90;;;12.80;99.90;;;;;;4975190;28;20213;-62
2022/06/10 04:31:39;;;;;;;1.83;1.73;;;12.90;99.90;;;;;;4974199;28;20177;-62
2022/06/10 04:34:05;;;;;;;1.60;1.50;;;13.00;99.90;;;;;;4973264;28;20437;-63
2022/06/10 04:36:31;;;;;;;2.60;2.00;;;13.00;99.90;;;;;;4975106;28;20529;-62
2022/06/10 04:38:57;;;;;;;2.73;2.30;;;13.20;99.90;;;;;;4974822;28;20461;-63
2022/06/10 04:41:22;;;;;;;4.80;2.23;;;13.30;99.90;;;;;;4975153;28;20927;-63
2022/06/10 04:43:48;;;;;;;1.77;1.67;;;13.40;99.90;;;;;;4973112;28;20413;-62
2022/06/10 04:46:24;;;;;;;1.60;1.50;;;13.50;99.90;;;;;;4974569;28;20182;-63
2022/06/10 04:48:50;;;;;;;2.67;2.43;;;13.60;99.90;;;;;;4974951;28;20587;-63
2022/06/10 04:51:16;;;;;;;2.00;1.90;;;13.80;99.90;;;;;;4974625;28;20415;-62
2022/06/10 04:53:41;;;;;;;2.30;2.20;;;13.90;99.90;;;;;;4973039;28;20192;-63
2022/06/10 04:56:07;;;;;;;2.40;2.30;;;14.00;99.90;;;;;;4975243;28;20627;-63
2022/06/10 04:58:34;;;;;;;2.70;2.00;;;14.00;99.90;;;;;;4974690;28;20199;-62
2022/06/10 05:01:00;;;;;;;2.63;1.67;;;14.10;99.90;;;;;;4974596;28;20643;-63
2022/06/10 05:03:25;;;;;;;1.80;1.70;;;14.00;99.90;;;;;;4954816;28;20480;-62
2022/06/10 05:05:51;;;;;;;2.10;2.00;;;14.10;99.90;;;;;;4956093;28;20216;-62
2022/06/10 05:08:18;;;;;;;3.80;1.80;;;14.30;99.90;;;;;;4955421;29;20175;-62
2022/06/10 05:10:45;;;;;;;2.20;2.10;;;14.40;99.90;;;;;;4955267;28;20181;-62
2022/06/10 05:13:11;;;;;;;1.40;1.40;;;14.60;99.90;;;;;;4953384;28;20934;-63
2022/06/10 05:15:37;;;;;;;1.53;1.43;;;14.70;99.90;;;;;;4955146;29;20517;-62
2022/06/10 05:18:03;;;;;;;1.40;1.40;;;15.00;99.90;;;;;;4954978;28;20781;-64
2022/06/10 05:20:38;;;;;;;2.43;1.70;;;15.30;99.90;;;;;;4966532;28;20409;-63
2022/06/10 05:23:05;;;;;;;1.70;1.60;;;15.40;99.90;;;;;;4972763;28;20494;-63
2022/06/10 05:25:31;;;;;;;1.70;1.60;;;15.40;99.90;;;;;;4974415;28;20396;-62
2022/06/10 05:27:57;;;;;;;2.10;1.80;;;15.50;99.90;;;;;;4974437;28;20462;-62
2022/06/10 05:30:25;;;;;;;2.53;1.87;;;15.50;99.90;;;;;;4966023;28;20425;-62
2022/06/10 05:32:54;;;;;;;2.13;1.80;;;15.60;99.90;;;;;;4954423;28;20958;-63
2022/06/10 05:35:20;;;;;;;3.00;2.70;;;15.60;99.90;;;;;;4967086;28;20419;-61
2022/06/10 05:37:49;;;;;;;2.13;1.70;;;15.70;99.90;;;;;;4956411;28;20460;-62
2022/06/10 05:40:15;;;;;;;2.23;2.03;;;15.70;99.90;;;;;;4959092;28;20423;-63
2022/06/10 05:42:43;;;;;;;2.10;1.90;;;15.70;99.90;;;;;;4961259;28;20408;-63
2022/06/10 05:45:10;;;;;;;1.93;1.83;;;15.70;99.90;;;;;;4954843;28;20428;-62
2022/06/10 05:47:37;;;;;;;2.23;2.13;;;15.70;99.90;;;;;;4954864;28;20557;-63
2022/06/10 05:50:16;;;;;;;1.60;1.60;;;15.90;99.90;;;;;;4967182;28;20455;-63
2022/06/10 05:52:42;;;;;;;2.50;1.90;;;16.10;99.90;;;;;;4973363;28;20507;-62
2022/06/10 05:55:09;;;;;;;1.70;1.63;;;16.30;99.90;;;;;;4973723;28;20502;-62
2022/06/10 05:57:35;;;;;;;2.10;2.00;;;16.40;99.90;;;;;;4974063;28;20424;-62
2022/06/10 06:00:00;;;;;;;3.00;2.07;;;16.40;99.90;;;;;;4973547;28;20511;-63
2022/06/10 06:02:26;;;;;;;2.20;1.83;;;16.50;99.90;;;;;;4973911;28;20180;-62
2022/06/10 06:04:52;;;;;;;1.70;1.60;;;16.50;99.90;;;;;;4972791;28;20292;-61
2022/06/10 06:07:22;;;;;;;1.70;1.60;;;16.70;99.90;;;;;;4973943;28;20507;-64
2022/06/10 06:09:48;;;;;;;1.70;1.60;;;16.70;99.90;;;;;;4973460;28;20263;-63
2022/06/10 06:12:14;;;;;;;1.77;1.67;;;16.70;99.90;;;;;;4973250;28;20425;-68
2022/06/10 06:14:40;;;;;;;2.80;2.37;;;16.80;99.90;;;;;;4963632;28;20449;-69
2022/06/10 06:17:06;;;;;;;2.13;1.90;;;16.70;99.90;;;;;;4958830;28;20915;-68
2022/06/10 06:19:33;;;;;;;2.83;2.00;;;16.70;99.90;;;;;;4959312;28;20259;-69
2022/06/10 06:21:59;;;;;;;1.80;1.70;;;16.70;99.90;;;;;;4957614;28;20417;-69
2022/06/10 06:24:26;;;;;;;1.93;1.83;;;16.80;99.90;;;;;;4958302;28;20452;-70
2022/06/10 06:26:52;;;;;;;2.10;2.00;;;16.80;99.90;;;;;;4975999;28;20423;-69
2022/06/10 06:29:19;;;;;;;4.33;2.53;;;16.90;99.90;;;;;;4959050;28;20444;-68
2022/06/10 06:31:45;;;;;;;2.50;2.30;;;17.00;99.90;;;;;;4971318;28;20405;-69
2022/06/10 06:34:11;;;;;;;2.30;2.20;;;17.10;99.90;;;;;;4975740;28;20925;-70
2022/06/10 06:36:44;;;;;;;2.17;1.70;;;17.30;99.90;;;;;;4976293;28;20191;-70
2022/06/10 06:39:15;;;;;;;2.70;2.50;;;17.40;99.90;;;;;;4969381;28;20450;-70
2022/06/10 06:41:40;;;;;;;2.60;2.40;;;17.40;99.90;;;;;;4964056;28;20457;-70
2022/06/10 06:44:07;;;;;;;3.27;2.60;;;17.40;99.90;;;;;;4961804;28;20489;-68
2022/06/10 06:46:35;;;;;;;3.40;2.43;;;17.50;99.90;;;;;;4976683;28;20174;-68
2022/06/10 06:49:02;;;;;;;2.30;2.10;;;17.50;99.90;;;;;;4975954;28;20449;-66
2022/06/10 06:51:28;;;;;;;2.70;2.20;;;17.70;99.90;;;;;;4976714;28;20386;-65
2022/06/10 06:53:54;;;;;;;3.10;2.10;;;17.90;99.90;;;;;;4976090;28;20847;-66
2022/06/10 06:56:19;;;;;;;4.10;2.80;;;18.10;99.90;;;;;;4976711;28;20176;-64
2022/06/10 06:58:45;;;;;;;2.07;1.93;;;18.30;99.90;;;;;;4976429;28;20218;-64
2022/06/10 07:01:11;;;;;;;2.90;2.17;;;18.40;99.90;;;;;;4969461;28;20509;-64
2022/06/10 07:03:36;;;;;;;2.10;1.90;;;18.60;99.90;;;;;;4967024;28;20541;-66
2022/06/10 07:06:02;;;;;;;1.53;1.43;;;18.80;99.90;;;;;;4976379;28;20324;-67
2022/06/10 07:08:31;;;;;;;2.00;1.80;;;19.10;99.90;;;;;;4956890;28;20212;-67
2022/06/10 07:10:58;;;;;;;2.00;1.70;;;19.20;99.90;;;;;;4955853;28;20837;-66
2022/06/10 07:13:24;;;;;;;2.13;1.93;;;19.20;99.90;;;;;;4956580;28;20436;-66
2022/06/10 07:15:50;;;;;;;2.00;1.80;;;19.20;99.90;;;;;;4957147;28;20491;-66
2022/06/10 07:18:17;;;;;;;2.03;1.93;;;19.20;99.90;;;;;;4968727;28;20542;-67
2022/06/10 07:20:44;;;;;;;1.80;1.70;;;19.30;99.90;;;;;;4958011;28;20173;-66
2022/06/10 07:23:09;;;;;;;1.57;1.47;;;19.40;99.90;;;;;;4959007;28;20418;-67
2022/06/10 07:25:36;;;;;;;2.00;1.90;;;19.50;99.90;;;;;;4955323;28;20929;-67
2022/06/10 07:28:01;;;;;;;1.67;1.57;;;19.70;99.90;;;;;;4972379;28;20231;-67
2022/06/10 07:30:30;;;;;;;2.90;1.47;;;20.20;99.90;;;;;;4971593;28;20799;-67
2022/06/10 07:32:57;;;;;;;2.13;1.80;;;20.80;99.10;;;;;;4975309;28;20189;-68
2022/06/10 07:35:23;;;;;;;4.40;1.90;;;21.60;97.50;;;;;;4975845;28;20450;-67
2022/06/10 07:37:49;;;;;;;1.30;1.30;;;22.40;97.20;;;;;;4975401;28;20452;-69
2022/06/10 07:43:06;;;;;;;5.20;1.90;;;24.40;93.40;;;;;;4972892;28;20437;-68
2022/06/10 07:45:32;;;;;;;2.00;1.90;;;25.70;91.40;;;;;;4967377;28;20929;-69
2022/06/10 07:47:58;;;;;;;1.80;1.70;;;27.10;89.00;;;;;;4955953;29;20177;-69
2022/06/10 07:50:24;;;;;;;2.10;1.53;;;28.50;82.50;;;;;;4966308;28;20464;-70
2022/06/10 07:52:50;;;;;;;1.77;1.67;;;29.70;76.70;;;;;;4965276;28;20768;-69
2022/06/10 07:55:20;;;;;;;2.40;2.20;;;30.40;74.10;;;;;;4969024;28;20507;-68
2022/06/10 07:57:46;;;;;;;1.63;1.53;;;31.20;71.50;;;;;;4965927;28;20550;-69
2022/06/10 08:00:14;;;;;;;1.70;1.60;;;31.70;67.70;;;;;;4972787;28;20498;-69
2022/06/10 08:02:40;;;;;;;1.70;1.60;;;32.20;64.40;;;;;;4962178;28;20504;-70
2022/06/10 08:05:08;;;;;;;1.77;1.67;;;32.50;63.70;;;;;;4965026;28;20471;-69
2022/06/10 08:07:35;;;;;;;2.40;2.17;;;32.90;59.80;;;;;;4958169;28;20432;-67
2022/06/10 08:10:00;;;;;;;1.70;1.60;;;33.10;60.50;;;;;;4963826;28;20960;-72
2022/06/10 08:12:27;;;;;;;2.00;1.90;;;33.40;58.70;;;;;;4952359;29;20452;-71
2022/06/10 08:14:52;;;;;;;1.70;1.60;;;33.60;57.70;;;;;;4953864;28;20436;-70
2022/06/10 08:17:18;;;;;;;2.30;2.20;;;33.80;58.30;;;;;;4953917;28;20592;-72
2022/06/10 08:19:44;;;;;;;3.33;1.87;;;34.00;56.90;;;;;;4953860;28;20288;-68
2022/06/10 08:24:54;;;;;;;2.73;2.47;;;34.70;56.50;;;;;;4975072;28;20275;-71
2022/06/10 08:27:20;;;;;;;2.20;1.90;;;35.00;55.10;;;;;;4956082;29;20834;-68
2022/06/10 08:29:46;;;;;;;3.83;1.77;;;35.30;54.00;;;;;;4955524;29;20255;-65
2022/06/10 08:32:11;;;;;;;3.87;2.07;;;35.20;53.80;;;;;;4955235;28;20276;-63
2022/06/10 08:34:41;;;;;;;2.20;2.10;;;34.60;53.40;;;;;;4955583;28;20460;-68
2022/06/10 08:37:08;;;;;;;2.30;2.13;;;34.00;53.90;;;;;;4973422;28;20200;-70
2022/06/10 08:39:34;;;;;;;2.03;1.83;;;33.90;54.60;;;;;;4974806;28;20522;-68
2022/06/10 08:42:17;;;;;;;2.30;1.70;;;34.30;53.90;;;;;;4974874;28;20458;-69
2022/06/10 08:44:51;;;;;;;2.53;2.33;;;34.50;54.30;;;;;;4974695;28;20439;-68
2022/06/10 08:47:27;;;;;;;4.70;1.80;;;35.00;54.50;;;;;;4972340;28;20433;-72
2022/06/10 08:50:20;;;;;;;1.93;1.83;;;35.30;53.00;;;;;;4960503;28;20433;-73
2022/06/10 08:53:24;;;;;;;2.10;2.00;;;35.20;52.20;;;;;;4962505;28;20431;-70
2022/06/10 08:56:05;;;;;;;2.70;2.40;;;35.60;52.70;;;;;;4938660;28;20440;-72
2022/06/10 08:58:45;;;;;;;2.07;1.97;;;35.80;50.90;;;;;;4974309;28;20953;-72
2022/06/10 09:01:17;;;;;;;2.10;2.00;;;35.80;51.30;;;;;;4965473;28;20420;-72
2022/06/10 09:03:49;;;;;;;1.83;1.73;;;35.50;51.50;;;;;;4969863;28;20523;-72
2022/06/10 09:06:38;;;;;;;1.93;1.80;;;35.30;51.30;;;;;;4960022;28;20428;-69
2022/06/10 09:09:06;;;;;;;2.53;2.40;;;35.20;51.50;;;;;;4963475;28;20432;-69
2022/06/10 09:11:37;;;;;;;2.20;2.10;;;35.50;51.80;;;;;;4966183;28;20435;-70
2022/06/10 09:14:22;;;;;;;2.03;1.83;;;35.50;51.10;;;;;;4954464;28;20460;-70
2022/06/10 09:16:53;;;;;;;2.00;1.90;;;35.50;50.50;;;;;;4972768;28;20507;-68
2022/06/10 09:19:40;;;;;;;2.23;1.70;;;35.80;50.90;;;;;;4959086;28;21029;-69
2022/06/10 09:22:30;;;;;;;2.80;2.70;;;36.00;50.60;;;;;;4971862;28;20428;-66
2022/06/10 09:25:12;;;;;;;3.07;2.23;;;36.20;50.30;;;;;;4954904;28;20421;-67
2022/06/10 09:27:51;;;;;;;2.00;1.80;;;36.30;50.10;;;;;;4954981;28;20412;-68
2022/06/10 09:30:21;;;;;;;2.67;2.43;;;35.80;50.00;;;;;;4956414;28;20428;-69
2022/06/10 09:33:04;;;;;;;2.97;2.00;;;35.50;50.00;;;;;;4958426;28;20415;-69
2022/06/10 09:35:29;;;;;;;2.07;1.97;;;34.80;50.80;;;;;;4968415;28;20423;-67
2022/06/10 09:38:22;;;;;;;1.80;1.70;;;34.20;50.70;;;;;;4963125;28;21017;-70
2022/06/10 09:41:11;;;;;;;1.37;1.30;;;33.60;52.00;;;;;;4955762;28;20165;-66
2022/06/10 09:43:50;;;;;;;1.50;1.47;;;33.90;52.60;;;;;;4954625;28;20515;-70
2022/06/10 09:46:37;;;;;;;5.10;2.07;;;33.60;49.70;;;;;;4959914;28;20494;-70
2022/06/10 09:49:30;;;;;;;2.83;1.43;;;32.70;50.30;;;;;;4973538;28;21065;-68
2022/06/10 09:52:27;;;;;;;1.50;1.40;;;31.60;51.90;;;;;;4977324;28;20416;-65
2022/06/10 09:55:19;;;;;;;2.63;2.43;;;30.50;53.60;;;;;;4976251;28;20795;-69
2022/06/10 09:58:05;;;;;;;2.90;1.90;;;29.90;55.90;;;;;;4975964;28;20423;-67
2022/06/10 10:00:36;;;;;;;4.53;1.90;;;29.40;55.80;;;;;;4974944;28;20405;-69
2022/06/10 10:03:28;;;;;;;3.23;2.80;;;28.80;56.60;;;;;;4964386;28;20421;-70
2022/06/10 10:06:12;;;;;;;1.83;1.73;;;28.10;58.40;;;;;;4962767;28;20502;-68
2022/06/10 10:09:21;;;;;;;1.67;1.57;;;27.50;59.50;;;;;;4966065;28;20399;-68
2022/06/10 10:11:57;;;;;;;1.97;1.50;;;26.70;60.30;;;;;;4976694;28;20381;-68
2022/06/10 10:14:58;;;;;;;5.57;1.83;;;26.10;61.40;;;;;;4977290;28;20397;-68
2022/06/10 10:17:29;;;;;;;1.73;1.60;;;25.70;63.60;;;;;;4970526;28;20390;-69
2022/06/10 10:20:16;;;;;;;1.97;1.27;;;26.10;67.10;;;;;;4977505;28;20470;-69
2022/06/10 10:23:11;;;;;;;1.60;1.50;;;27.20;61.20;;;;;;4977222;28;20473;-67
2022/06/10 10:25:40;;;;;;;1.83;1.73;;;28.70;60.00;;;;;;4975618;28;20422;-67
2022/06/10 10:28:29;;;;;;;2.60;1.70;;;29.70;56.80;;;;;;4976947;28;20415;-67
2022/06/10 10:31:21;;;;;;;6.60;3.03;;;30.40;54.60;;;;;;4977013;28;20414;-66
2022/06/10 10:33:47;;;;;;;1.40;1.40;;;30.70;57.00;;;;;;4972646;28;20842;-67
2022/06/10 10:36:28;;;;;;;2.10;1.90;;;31.10;55.80;;;;;;4977070;28;20712;-67
2022/06/10 10:38:55;;;;;;;4.00;1.63;;;31.90;54.90;;;;;;4976773;28;20783;-68
2022/06/10 10:41:29;;;;;;;1.50;1.40;;;32.30;53.10;;;;;;4977455;28;20415;-68
2022/06/10 10:44:01;;;;;;;1.30;1.30;;;32.30;53.30;;;;;;4976526;28;20423;-68
2022/06/10 10:46:56;;;;;;;2.03;1.93;;;32.30;52.40;;;;;;4976870;28;20404;-67
2022/06/10 10:49:27;;;;;;;1.60;1.50;;;32.20;52.60;;;;;;4975314;28;20915;-67
2022/06/10 10:51:54;;;;;;;1.63;1.53;;;32.50;52.20;;;;;;4976989;28;20848;-69
2022/06/10 10:54:27;;;;;;;2.60;1.57;;;32.50;53.00;;;;;;4976032;28;20443;-69
2022/06/10 10:56:54;;;;;;;1.80;1.70;;;32.10;52.10;;;;;;4976804;28;20481;-69
2022/06/10 10:59:26;;;;;;;1.60;1.50;;;31.80;52.00;;;;;;4976549;28;20953;-67
2022/06/10 11:01:54;;;;;;;1.63;1.53;;;31.80;52.90;;;;;;4975889;28;20819;-68
2022/06/10 11:04:40;;;;;;;1.87;1.77;;;31.50;51.10;;;;;;4976085;28;20462;-69
2022/06/10 11:07:16;;;;;;;2.43;1.87;;;30.60;52.80;;;;;;4976313;28;20411;-67
2022/06/10 11:09:50;;;;;;;1.67;1.43;;;29.30;52.80;;;;;;4976531;28;20417;-67
2022/06/10 11:12:22;;;;;;;1.63;1.53;;;28.50;53.90;;;;;;4976095;28;20427;-67
2022/06/10 11:14:58;;;;;;;1.70;1.60;;;27.80;54.80;;;;;;4976278;28;20843;-68
2022/06/10 11:17:24;;;;;;;2.93;1.67;;;27.00;55.80;;;;;;4976331;28;20378;-68
2022/06/10 11:19:50;;;;;;;1.93;1.83;;;26.40;57.10;;;;;;4976193;28;20488;-68
2022/06/10 11:22:19;;;;;;;2.20;1.60;;;25.60;58.90;;;;;;4975794;28;20419;-67
2022/06/10 11:24:52;;;;;;;1.90;1.70;;;25.10;59.80;;;;;;4975980;28;20677;-68
2022/06/10 11:27:28;;;;;;;1.90;1.37;;;24.80;62.00;;;;;;4976361;28;20433;-69
2022/06/10 11:30:06;;;;;;;1.63;1.53;;;24.60;62.30;;;;;;4976209;28;20415;-68
2022/06/10 11:32:47;;;;;;;1.47;1.37;;;24.40;64.70;;;;;;4975815;28;20478;-67
2022/06/10 11:35:35;;;;;;;2.83;1.87;;;24.40;63.40;;;;;;4975765;28;20435;-67
2022/06/10 11:38:08;;;;;;;2.40;1.60;;;24.40;64.30;;;;;;4975529;28;20433;-68
2022/06/10 11:40:42;;;;;;;2.20;2.00;;;24.20;62.70;;;;;;4976091;28;20395;-68
2022/06/10 11:43:22;;;;;;;1.50;1.50;;;23.90;62.50;;;;;;4975686;28;20381;-67
2022/06/10 11:45:50;;;;;;;2.20;1.63;;;23.70;63.20;;;;;;4975703;28;20374;-67
2022/06/10 11:48:44;;;;;;;1.77;1.67;;;23.50;64.40;;;;;;4975933;28;20731;-68
2022/06/10 11:51:28;;;;;;;1.60;1.50;;;23.30;64.10;;;;;;4975657;28;20404;-68
2022/06/10 11:54:34;;;;;;;3.07;1.30;;;23.10;65.70;;;;;;4974925;28;20402;-67
2022/06/10 12:00:38;;;;;;;3.03;1.90;;;22.90;66.00;;;;;;4956192;29;20465;-67
2022/06/10 12:03:25;;;;;;;1.70;1.60;;;22.90;68.50;;;;;;4956087;28;20794;-68
2022/06/10 12:06:12;;;;;;;1.87;1.77;;;23.00;67.50;;;;;;4955909;28;20422;-67
2022/06/10 12:09:00;;;;;;;3.80;1.73;;;23.10;65.90;;;;;;4956028;28;20423;-67
2022/06/10 12:11:40;;;;;;;1.50;1.47;;;23.30;65.00;;;;;;4955488;28;20419;-68
2022/06/10 12:14:21;;;;;;;1.70;1.60;;;23.40;65.80;;;;;;4953977;28;20946;-67
2022/06/10 12:17:01;;;;;;;2.23;1.47;;;23.50;68.40;;;;;;4956140;28;20404;-68
2022/06/10 12:19:45;;;;;;;1.83;1.67;;;23.60;64.30;;;;;;4955999;28;20804;-67
2022/06/10 12:22:13;;;;;;;2.37;1.33;;;23.70;65.70;;;;;;4955519;28;20373;-68
2022/06/10 12:24:39;;;;;;;2.83;1.43;;;23.90;65.60;;;;;;4955881;28;20432;-68
2022/06/10 12:27:11;;;;;;;1.43;1.33;;;24.00;63.80;;;;;;4955655;28;20413;-67
2022/06/10 12:30:11;;;;;;;1.20;1.20;;;23.90;63.60;;;;;;4955719;28;20415;-67
2022/06/10 12:33:00;;;;;;;2.20;1.80;;;24.00;64.10;;;;;;4955000;29;20399;-67
2022/06/10 12:35:34;;;;;;;1.60;1.50;;;24.20;64.60;;;;;;4955551;28;20390;-68
2022/06/10 12:37:59;;;;;;;1.20;1.07;;;24.50;65.30;;;;;;4955475;28;20485;-67
2022/06/10 12:40:44;;;;;;;1.27;1.17;;;24.80;64.00;;;;;;4955638;28;20858;-67
2022/06/10 12:43:17;;;;;;;1.50;1.40;;;24.90;62.00;;;;;;4955241;28;20169;-67
2022/06/10 12:45:50;;;;;;;1.77;1.67;;;25.10;62.40;;;;;;4953977;28;20914;-68
2022/06/10 12:48:48;;;;;;;1.70;1.33;;;25.10;62.20;;;;;;4953824;28;20406;-68
2022/06/10 12:51:32;;;;;;;1.40;1.30;;;25.00;61.40;;;;;;4965611;28;20852;-68
2022/06/10 12:54:33;;;;;;;1.33;1.30;;;24.80;62.10;;;;;;4973253;28;20402;-67
2022/06/10 12:57:23;;;;;;;1.70;1.60;;;24.70;61.30;;;;;;4974044;28;20765;-67
2022/06/10 12:59:49;;;;;;;1.40;1.30;;;24.60;61.40;;;;;;4974176;28;20429;-68
2022/06/10 13:02:43;;;;;;;3.60;1.40;;;24.60;61.80;;;;;;4973677;28;20470;-67
2022/06/10 13:05:18;;;;;;;1.10;1.10;;;24.50;61.00;;;;;;4974344;28;20304;-67
2022/06/10 13:07:44;;;;;;;1.43;1.00;;;24.40;62.00;;;;;;4973686;28;20415;-65
2022/06/10 13:10:29;;;;;;;1.30;1.20;;;24.40;62.00;;;;;;4973881;28;20430;-67
2022/06/10 13:13:21;;;;;;;1.63;1.53;;;24.40;60.70;;;;;;4971104;28;20164;-65
2022/06/10 13:15:47;;;;;;;1.27;1.27;;;24.50;61.60;;;;;;4954683;28;20954;-65
2022/06/10 13:18:15;;;;;;;1.20;1.07;;;24.50;61.30;;;;;;4955095;28;20444;-66
2022/06/10 13:20:41;;;;;;;2.37;1.47;;;24.50;60.40;;;;;;4974549;28;20481;-65
2022/06/10 13:23:23;;;;;;;1.33;1.23;;;24.50;61.20;;;;;;4974022;28;20481;-65
2022/06/10 13:26:10;;;;;;;1.63;1.53;;;24.50;61.30;;;;;;4970774;28;20177;-66
2022/06/10 13:28:39;;;;;;;1.50;1.40;;;24.60;62.40;;;;;;4973965;28;20427;-66
2022/06/10 13:31:10;;;;;;;1.27;1.17;;;24.70;62.00;;;;;;4971685;28;20897;-65
2022/06/10 13:33:36;;;;;;;2.10;1.27;;;24.80;60.80;;;;;;4968542;28;20459;-66
2022/06/10 13:36:02;;;;;;;1.70;1.30;;;25.00;60.10;;;;;;4960728;28;20859;-65
2022/06/10 13:38:33;;;;;;;2.10;1.30;;;25.10;59.40;;;;;;4958825;29;20213;-65
2022/06/10 13:43:51;;;;;;;1.10;1.10;;;24.80;59.10;;;;;;4978002;28;20398;-66
2022/06/10 13:46:24;;;;;;;0.90;0.90;;;24.80;58.50;;;;;;4963791;28;20471;-67
2022/06/10 13:49:09;;;;;;;1.53;1.43;;;24.70;57.80;;;;;;4969532;28;20427;-65
2022/06/10 13:51:42;;;;;;;2.00;1.03;;;24.70;58.00;;;;;;4975679;28;20410;-65
2022/06/10 13:54:21;;;;;;;1.00;1.00;;;24.80;59.00;;;;;;4960439;28;20891;-65
2022/06/10 13:56:48;;;;;;;1.13;1.10;;;24.80;57.30;;;;;;4964804;28;20807;-65
2022/06/10 13:59:30;;;;;;;2.63;1.27;;;24.80;56.90;;;;;;4977085;28;20480;-65
2022/06/10 14:01:59;;;;;;;1.43;1.33;;;24.80;58.10;;;;;;4977617;28;20381;-66
2022/06/10 14:04:32;;;;;;;1.53;1.40;;;24.90;59.50;;;;;;4973015;28;20415;-65
2022/06/10 14:07:02;;;;;;;3.43;1.60;;;24.90;60.90;;;;;;4958553;28;20819;-65
2022/06/10 14:09:37;;;;;;;1.60;1.50;;;25.10;62.20;;;;;;4958423;28;20435;-66
2022/06/10 14:12:13;;;;;;;1.20;1.10;;;25.10;60.20;;;;;;4975689;28;20476;-66
2022/06/10 14:14:41;;;;;;;6.03;1.30;;;25.10;61.00;;;;;;4977593;28;20720;-66
2022/06/10 14:17:10;;;;;;;3.00;1.50;;;25.20;61.90;;;;;;4977686;28;20386;-65
2022/06/10 14:19:46;;;;;;;2.37;1.33;;;25.20;60.30;;;;;;4977592;28;20430;-65
2022/06/10 14:22:21;;;;;;;1.13;1.13;;;25.30;61.60;;;;;;4974521;28;20945;-66
2022/06/10 14:25:20;;;;;;;0.90;0.90;;;25.30;59.40;;;;;;4973993;28;20464;-65
2022/06/10 14:28:13;;;;;;;1.17;1.17;;;25.40;58.10;;;;;;4953701;28;20398;-65
2022/06/10 14:30:39;;;;;;;1.33;1.23;;;25.40;59.70;;;;;;4977590;28;20407;-64
2022/06/10 14:33:33;;;;;;;2.60;1.37;;;25.40;59.20;;;;;;4972907;28;20402;-65
2022/06/10 14:36:26;;;;;;;4.33;1.33;;;25.40;57.60;;;;;;4974725;28;20267;-66
2022/06/10 14:39:15;;;;;;;1.47;1.40;;;25.40;58.80;;;;;;4973269;28;20824;-65
2022/06/10 14:42:16;;;;;;;1.10;1.10;;;25.40;57.20;;;;;;4957975;28;20455;-66
2022/06/10 14:44:58;;;;;;;3.33;1.53;;;25.40;57.60;;;;;;4975147;28;20426;-67
2022/06/10 14:47:26;;;;;;;0.97;0.90;;;25.40;57.90;;;;;;4976781;28;20381;-65
2022/06/10 14:50:04;;;;;;;1.00;0.97;;;25.40;56.70;;;;;;4976770;28;20395;-65
2022/06/10 14:52:38;;;;;;;1.20;1.10;;;25.40;55.40;;;;;;4976465;28;20410;-66
2022/06/10 14:55:06;;;;;;;0.80;0.80;;;25.30;55.00;;;;;;4970444;28;20417;-65
2022/06/10 14:57:32;;;;;;;1.10;1.10;;;25.20;55.10;;;;;;4976567;28;20390;-65
2022/06/10 14:59:58;;;;;;;0.90;0.90;;;25.10;55.40;;;;;;4976546;28;20461;-65
2022/06/10 15:02:24;;;;;;;1.30;1.07;;;25.10;55.40;;;;;;4959037;28;20421;-65
2022/06/10 15:07:35;;;;;;;1.13;0.90;;;25.10;55.70;;;;;;4976810;28;20260;-65
2022/06/10 15:10:05;;;;;;;1.20;1.10;;;25.10;56.00;;;;;;4964062;28;20402;-65
2022/06/10 15:12:32;;;;;;;1.00;1.00;;;25.10;55.10;;;;;;4957545;28;20816;-66
2022/06/10 15:14:58;;;;;;;1.20;1.13;;;25.00;55.40;;;;;;4969082;28;20465;-65
2022/06/10 15:17:32;;;;;;;1.47;1.47;;;25.00;56.30;;;;;;4976559;28;20781;-65
2022/06/10 15:19:58;;;;;;;1.30;1.20;;;25.00;57.50;;;;;;4975334;28;20287;-65
2022/06/10 15:22:36;;;;;;;1.50;1.40;;;25.00;57.70;;;;;;4976137;28;20403;-65
2022/06/10 15:25:03;;;;;;;0.83;0.83;;;24.90;57.60;;;;;;4962639;28;20423;-65
2022/06/10 15:27:29;;;;;;;0.93;0.93;;;24.90;56.50;;;;;;4957162;28;20902;-65
2022/06/10 15:29:55;;;;;;;1.10;1.10;;;24.80;56.30;;;;;;4957161;28;20469;-65
2022/06/10 15:32:22;;;;;;;1.23;1.13;;;24.70;55.60;;;;;;4956608;28;20178;-65
2022/06/10 15:43:09;;;;;;;1.50;0.90;;;24.30;56.40;;;;;;4956629;28;20960;-65
2022/06/10 15:45:35;;;;;;;1.23;0.83;;;24.20;56.70;;;;;;4956851;28;20384;-65
2022/06/10 15:48:00;;;;;;;1.00;1.00;;;24.20;56.40;;;;;;4956570;28;20883;-65
2022/06/10 15:50:27;;;;;;;0.90;0.90;;;24.10;56.20;;;;;;4956493;28;20184;-66
2022/06/10 15:52:54;;;;;;;1.13;1.13;;;24.00;57.40;;;;;;4956096;28;20216;-65
2022/06/10 15:58:26;;;;;;;0.83;0.83;;;23.90;57.00;;;;;;4957317;28;20474;-65
2022/06/10 16:00:52;;;;;;;0.83;0.83;;;23.90;57.40;;;;;;4957957;28;20791;-65
2022/06/10 16:03:19;;;;;;;1.00;0.90;;;24.00;57.60;;;;;;4974306;28;20513;-65
2022/06/10 16:05:47;;;;;;;0.87;0.87;;;24.10;57.70;;;;;;4975367;28;20623;-65
2022/06/10 16:08:13;;;;;;;2.43;2.10;;;24.10;57.20;;;;;;4971059;28;20427;-64
2022/06/10 16:10:41;;;;;;;2.10;1.90;;;24.20;57.50;;;;;;4971331;28;20436;-65
2022/06/10 16:13:14;;;;;;;1.07;1.07;;;24.30;57.60;;;;;;4959914;28;20532;-65
2022/06/10 16:15:50;;;;;;;1.00;1.00;;;24.40;58.10;;;;;;4963874;28;20503;-68
2022/06/10 16:18:25;;;;;;;1.57;1.40;;;24.60;57.90;;;;;;4959417;28;20445;-73
2022/06/10 16:20:54;;;;;;;0.90;0.90;;;24.60;57.00;;;;;;4968515;28;20474;-73
2022/06/10 16:23:23;;;;;;;0.90;0.90;;;24.70;57.10;;;;;;4968942;28;20831;-69
2022/06/10 16:25:53;;;;;;;0.90;0.90;;;24.90;57.00;;;;;;4965534;28;20399;-74
2022/06/10 16:28:26;;;;;;;0.80;0.80;;;25.00;56.70;;;;;;4958009;28;20450;-71
2022/06/10 16:30:52;;;;;;;0.90;0.90;;;25.00;56.60;;;;;;4960194;28;20410;-68
2022/06/10 16:33:20;;;;;;;1.00;1.00;;;25.10;56.60;;;;;;4965101;28;20471;-70
2022/06/10 16:35:45;;;;;;;1.20;1.20;;;25.20;56.80;;;;;;4969003;28;20191;-69
2022/06/10 16:38:20;;;;;;;1.00;0.90;;;25.20;56.90;;;;;;4972418;28;20442;-74
2022/06/10 16:40:47;;;;;;;3.33;1.20;;;25.10;57.20;;;;;;4969567;28;20252;-71
2022/06/10 16:43:18;;;;;;;0.80;0.80;;;25.10;57.10;;;;;;4962789;28;20440;-75
2022/06/10 16:45:46;;;;;;;1.60;1.50;;;24.90;57.90;;;;;;4968995;28;20914;-67
2022/06/10 16:48:18;;;;;;;2.13;1.93;;;24.80;58.50;;;;;;4966696;28;20504;-70
2022/06/10 16:50:46;;;;;;;1.60;1.50;;;24.60;59.40;;;;;;4970825;28;20410;-75
2022/06/10 16:53:13;;;;;;;1.17;1.17;;;24.50;59.40;;;;;;4970577;28;20867;-73
2022/06/10 16:55:39;;;;;;;1.23;1.13;;;24.50;59.70;;;;;;4972780;28;20771;-72
2022/06/10 16:58:09;;;;;;;1.10;1.10;;;24.50;59.80;;;;;;4966508;28;20437;-72
2022/06/10 17:00:36;;;;;;;1.27;1.20;;;24.40;60.20;;;;;;4972679;28;20390;-71
2022/06/10 17:03:04;;;;;;;2.57;1.60;;;24.40;59.00;;;;;;4967893;28;20926;-70
2022/06/10 17:05:34;;;;;;;0.80;0.80;;;24.40;59.40;;;;;;4968150;28;20451;-71
2022/06/10 17:08:00;;;;;;;2.40;1.10;;;24.30;60.00;;;;;;4974606;28;20494;-71
